createdAt,value
2022-07-25T00:03:32.590Z,0.80
2022-07-25T00:08:54.324Z,0.60
2022-07-25T00:14:16.206Z,0.60
2022-07-25T00:19:38.647Z,0.65
2022-07-25T00:25:00.481Z,0.40
2022-07-25T00:30:22.318Z,0.52
2022-07-25T00:35:44.243Z,0.50
2022-07-25T00:41:06.150Z,0.50
2022-07-25T00:46:28.013Z,0.40
2022-07-25T00:51:50.580Z,0.60
2022-07-25T00:57:12.327Z,0.55
2022-07-25T01:02:34.151Z,0.50
2022-07-25T01:07:56.134Z,0.50
2022-07-25T01:13:17.937Z,0.50
2022-07-25T01:18:42.522Z,0.50
2022-07-25T01:24:04.647Z,0.40
2022-07-25T01:29:26.711Z,0.40
2022-07-25T01:34:48.411Z,0.40
2022-07-25T01:40:10.363Z,0.40
2022-07-25T01:45:32.121Z,0.47
2022-07-25T01:50:53.867Z,0.40
2022-07-25T01:56:16.025Z,0.28
2022-07-25T02:01:37.821Z,0.40
2022-07-25T02:06:59.604Z,0.30
2022-07-25T02:12:21.363Z,0.40
2022-07-25T02:17:43.110Z,0.45
2022-07-25T02:23:05.221Z,0.50
2022-07-25T02:28:27.238Z,0.40
2022-07-25T02:33:49.038Z,0.60
2022-07-25T02:39:10.695Z,0.60
2022-07-25T02:44:32.393Z,0.57
2022-07-25T02:49:54.160Z,0.40
2022-07-25T02:55:15.977Z,0.57
2022-07-25T03:00:37.868Z,0.43
2022-07-25T03:05:59.610Z,0.70
2022-07-25T03:11:21.401Z,0.60
2022-07-25T03:16:43.085Z,0.50
2022-07-25T03:22:04.864Z,0.70
2022-07-25T03:27:27.083Z,0.50
2022-07-25T03:32:49.814Z,0.50
2022-07-25T03:38:11.494Z,0.60
2022-07-25T03:43:33.234Z,0.60
2022-07-25T03:48:55.733Z,0.60
2022-07-25T03:54:17.529Z,0.50
2022-07-25T03:59:40.401Z,0.50
2022-07-25T04:05:02.144Z,0.57
2022-07-25T04:10:23.833Z,0.50
2022-07-25T04:15:45.659Z,0.52
2022-07-25T04:21:08.434Z,0.55
2022-07-25T04:26:31.056Z,0.50
2022-07-25T04:31:52.907Z,0.52
2022-07-25T04:37:14.707Z,0.60
2022-07-25T04:42:36.455Z,0.60
2022-07-25T04:47:58.311Z,0.63
2022-07-25T04:53:20.060Z,0.52
2022-07-25T04:58:41.988Z,0.60
2022-07-25T05:04:03.982Z,0.50
2022-07-25T05:09:26.111Z,0.50
2022-07-25T05:14:47.906Z,0.60
2022-07-25T05:20:10.372Z,0.70
2022-07-25T05:25:32.478Z,2.83
2022-07-25T05:30:54.191Z,2.60
2022-07-25T05:36:17.030Z,2.85
2022-07-25T05:41:38.829Z,2.30
2022-07-25T05:47:00.795Z,2.13
2022-07-25T05:52:22.873Z,2.17
2022-07-25T05:57:44.659Z,2.40
2022-07-25T06:03:06.427Z,1.88
2022-07-25T06:08:30.929Z,1.75
2022-07-25T06:13:52.959Z,1.50
2022-07-25T06:19:14.745Z,1.70
2022-07-25T06:24:36.542Z,2.10
2022-07-25T06:29:58.581Z,1.92
2022-07-25T06:35:20.434Z,2.08
2022-07-25T06:40:42.164Z,1.80
2022-07-25T06:46:03.964Z,2.33
2022-07-25T06:51:26.140Z,1.85
2022-07-25T06:56:47.927Z,2.30
2022-07-25T07:02:09.600Z,1.98
2022-07-25T07:07:31.384Z,2.08
2022-07-25T07:13:03.954Z,2.17
2022-07-25T07:18:30.186Z,1.90
2022-07-25T07:23:52.037Z,1.70
2022-07-25T07:29:15.518Z,1.88
2022-07-25T07:34:37.471Z,1.75
2022-07-25T07:39:59.172Z,1.42
2022-07-25T07:45:23.566Z,1.30
2022-07-25T07:50:45.281Z,1.90
2022-07-25T07:56:07.755Z,1.30
2022-07-25T08:01:29.582Z,1.52
2022-07-25T08:06:51.358Z,1.33
2022-07-25T08:12:13.177Z,1.58
2022-07-25T08:17:34.987Z,1.67
2022-07-25T08:22:57.237Z,1.40
2022-07-25T08:28:19.244Z,1.42
2022-07-25T08:33:40.965Z,1.25
2022-07-25T08:39:02.669Z,1.13
2022-07-25T08:44:31.147Z,1.10
2022-07-25T08:49:53.613Z,1.42
2022-07-25T08:55:20.240Z,1.13
2022-07-25T09:00:42.851Z,1.00
2022-07-25T09:06:20.150Z,1.38
2022-07-25T09:11:42.059Z,1.10
2022-07-25T09:17:07.097Z,0.70
2022-07-25T09:22:45.388Z,1.10
2022-07-25T09:28:12.301Z,0.90
2022-07-25T09:33:34.159Z,0.90
2022-07-25T09:39:01.296Z,0.70
2022-07-25T09:44:23.319Z,0.77
2022-07-25T09:49:47.597Z,0.95
2022-07-25T09:55:11.132Z,0.97
2022-07-25T10:00:33.040Z,0.88
2022-07-25T10:06:25.165Z,0.80
2022-07-25T10:12:07.074Z,0.80
2022-07-25T10:17:28.805Z,1.08
2022-07-25T10:22:58.459Z,0.70
2022-07-25T10:28:20.506Z,0.90
2022-07-25T10:33:43.156Z,0.63
2022-07-25T10:39:09.235Z,0.80
2022-07-25T10:44:42.878Z,0.70
2022-07-25T10:50:34.794Z,0.93
2022-07-25T10:56:05.644Z,0.80
2022-07-25T11:01:32.770Z,0.82
2022-07-25T11:06:54.960Z,0.90
2022-07-25T11:12:16.915Z,0.50
2022-07-25T11:17:38.622Z,0.70
2022-07-25T11:23:00.344Z,0.80
2022-07-25T11:28:22.065Z,0.60
2022-07-25T11:33:47.535Z,0.95
2022-07-25T11:39:10.189Z,0.95
2022-07-25T11:44:35.038Z,1.00
2022-07-25T11:50:00.053Z,0.77
2022-07-25T11:55:29.239Z,1.88
2022-07-25T12:00:51.016Z,1.33
2022-07-25T12:06:13.096Z,0.90
2022-07-25T12:11:34.812Z,1.02
2022-07-25T12:16:56.569Z,0.88
2022-07-25T12:22:18.361Z,1.10
2022-07-25T12:27:40.619Z,1.10
2022-07-25T12:33:02.591Z,1.23
2022-07-25T12:38:24.378Z,0.65
2022-07-25T12:43:46.078Z,0.82
2022-07-25T12:49:08.162Z,1.02
2022-07-25T12:54:30.363Z,0.82
2022-07-25T12:59:52.153Z,0.80
2022-07-25T13:05:14.114Z,0.90
2022-07-25T13:10:35.915Z,1.13
2022-07-25T13:15:58.786Z,0.80
2022-07-25T13:21:21.147Z,1.08
2022-07-25T13:26:42.910Z,0.70
2022-07-25T13:32:05.024Z,0.55
2022-07-25T13:37:27.867Z,0.70
2022-07-25T13:42:49.527Z,1.10
2022-07-25T13:48:29.105Z,0.77
2022-07-25T13:53:51.525Z,0.90
2022-07-25T13:59:20.369Z,1.00
2022-07-25T14:04:43.201Z,0.93
2022-07-25T14:10:07.748Z,0.90
2022-07-25T14:15:29.586Z,0.53
2022-07-25T14:20:51.396Z,0.50
2022-07-25T14:26:13.175Z,0.80
2022-07-25T14:31:34.942Z,0.77
2022-07-25T14:36:56.828Z,0.60
2022-07-25T14:42:18.615Z,0.45
2022-07-25T14:47:41.843Z,0.70
2022-07-25T14:53:03.687Z,0.40
2022-07-25T14:58:25.378Z,0.60
2022-07-25T15:03:47.103Z,0.60
2022-07-25T15:09:09.454Z,0.80
2022-07-25T15:14:31.474Z,0.57
2022-07-25T15:19:53.161Z,0.68
2022-07-25T15:25:57.959Z,0.85
2022-07-25T15:30:56.690Z,0.77
2022-07-25T15:36:19.700Z,0.50
2022-07-25T15:41:41.703Z,0.43
2022-07-25T15:47:04.024Z,0.50
2022-07-25T15:52:26.769Z,0.75
2022-07-25T15:57:48.495Z,0.85
2022-07-25T16:03:11.456Z,0.60
2022-07-25T16:08:36.008Z,0.77
2022-07-25T16:13:57.707Z,0.60
2022-07-25T16:19:19.411Z,0.60
2022-07-25T16:24:41.310Z,0.70
2022-07-25T16:30:03.364Z,0.60
2022-07-25T16:35:25.127Z,0.88
2022-07-25T16:40:46.889Z,3.67
2022-07-25T16:46:08.746Z,3.75
2022-07-25T16:51:34.180Z,3.25
2022-07-25T16:56:59.915Z,2.42
2022-07-25T17:02:27.614Z,2.90
2022-07-25T17:07:57.062Z,2.03
2022-07-25T17:13:20.587Z,1.73
2022-07-25T17:18:42.369Z,1.10
2022-07-25T17:24:04.380Z,1.35
2022-07-25T17:29:26.450Z,1.13
2022-07-25T17:34:48.259Z,1.20
2022-07-25T17:40:10.829Z,1.25
2022-07-25T17:45:32.654Z,0.80
2022-07-25T17:50:54.422Z,0.90
2022-07-25T17:56:16.288Z,1.00
2022-07-25T18:01:38.144Z,1.30
2022-07-25T18:06:59.945Z,0.80
2022-07-25T18:12:26.027Z,0.60
2022-07-25T18:17:50.850Z,1.00
2022-07-25T18:23:13.058Z,0.70
2022-07-25T18:28:36.542Z,1.05
2022-07-25T18:33:58.427Z,0.60
2022-07-25T18:39:20.222Z,0.30
2022-07-25T18:44:42.107Z,0.45
2022-07-25T18:50:05.118Z,0.45
2022-07-25T18:55:26.954Z,0.50
2022-07-25T19:00:48.750Z,0.50
2022-07-25T19:06:10.978Z,0.43
2022-07-25T19:11:38.871Z,0.52
2022-07-25T19:17:04.226Z,0.60
2022-07-25T19:22:25.969Z,0.80
2022-07-25T19:27:48.776Z,0.60
2022-07-25T19:33:10.588Z,0.50
2022-07-25T19:38:32.621Z,1.45
2022-07-25T19:43:54.950Z,0.40
2022-07-25T19:49:17.389Z,0.40
2022-07-25T19:54:39.158Z,1.05
2022-07-25T20:00:00.899Z,1.20
2022-07-25T20:05:22.643Z,1.00
2022-07-25T20:10:45.023Z,0.65
2022-07-25T20:16:06.886Z,0.80
2022-07-25T20:21:29.762Z,0.70
2022-07-25T20:26:51.477Z,0.70
2022-07-25T20:32:13.293Z,0.60
2022-07-25T20:37:35.703Z,0.68
2022-07-25T20:42:57.450Z,0.50
2022-07-25T20:48:19.161Z,0.70
2022-07-25T20:53:42.031Z,0.45
2022-07-25T20:59:04.384Z,0.52
2022-07-25T21:04:26.320Z,0.20
2022-07-25T21:09:48.045Z,0.20
2022-07-25T21:15:10.294Z,0.50
2022-07-25T21:20:32.038Z,0.35
2022-07-25T21:25:53.736Z,0.22
2022-07-25T21:31:17.727Z,0.30
2022-07-25T21:36:39.951Z,0.20
2022-07-25T21:42:02.164Z,0.30
2022-07-25T21:47:23.852Z,0.10
2022-07-25T21:52:45.709Z,0.43
2022-07-25T21:58:08.291Z,0.40
2022-07-25T22:03:30.046Z,0.30
2022-07-25T22:08:51.747Z,0.30
2022-07-25T22:14:14.307Z,0.22
2022-07-25T22:19:36.342Z,0.20
2022-07-25T22:24:58.099Z,0.30
2022-07-25T22:30:20.008Z,0.20
2022-07-25T22:35:41.752Z,0.17
2022-07-25T22:41:03.530Z,0.00
2022-07-25T22:46:25.769Z,0.22
2022-07-25T22:51:47.645Z,0.10
2022-07-25T22:57:09.345Z,0.10
2022-07-25T23:02:31.129Z,0.20
2022-07-25T23:07:52.919Z,0.10
2022-07-25T23:13:14.665Z,0.10
2022-07-25T23:18:36.398Z,0.20
2022-07-25T23:24:00.122Z,0.20
2022-07-25T23:29:21.896Z,0.10
2022-07-25T23:34:44.148Z,0.10
2022-07-25T23:40:06.840Z,0.20
2022-07-25T23:45:28.722Z,0.13
2022-07-25T23:50:50.419Z,0.10
2022-07-25T23:56:13.470Z,0.10
